sensor_id;sensor_type;location;lat;lon;timestamp;temperature;humidity
15107;DHT22;7654;45.308;-75.096;2022-11-20T00:00:24;-1.80;99.90
15107;DHT22;7654;45.308;-75.096;2022-11-20T00:02:54;-1.80;99.90
15107;DHT22;7654;45.308;-75.096;2022-11-20T00:05:25;-1.80;99.90
15107;DHT22;7654;45.308;-75.096;2022-11-20T00:07:55;-1.80;99.90
15107;DHT22;7654;45.308;-75.096;2022-11-20T00:10:25;-1.90;99.90
15107;DHT22;7654;45.308;-75.096;2022-11-20T00:12:55;-1.90;99.90
15107;DHT22;7654;45.308;-75.096;2022-11-20T00:15:29;-1.90;99.90
15107;DHT22;7654;45.308;-75.096;2022-11-20T00:17:59;-1.90;99.90
15107;DHT22;7654;45.308;-75.096;2022-11-20T00:20:30;-1.90;99.90
15107;DHT22;7654;45.308;-75.096;2022-11-20T00:23:00;-1.90;99.90
15107;DHT22;7654;45.308;-75.096;2022-11-20T00:25:30;-1.90;99.90
15107;DHT22;7654;45.308;-75.096;2022-11-20T00:28:01;-1.90;99.90
15107;DHT22;7654;45.308;-75.096;2022-11-20T00:30:32;-1.80;99.90
15107;DHT22;7654;45.308;-75.096;2022-11-20T00:33:03;-1.80;99.90
15107;DHT22;7654;45.308;-75.096;2022-11-20T00:35:33;-1.80;99.90
15107;DHT22;7654;45.308;-75.096;2022-11-20T00:38:03;-1.80;99.90
15107;DHT22;7654;45.308;-75.096;2022-11-20T00:40:34;-1.80;99.90
15107;DHT22;7654;45.308;-75.096;2022-11-20T00:43:04;-1.80;99.90
15107;DHT22;7654;45.308;-75.096;2022-11-20T00:45:36;-1.90;99.90
15107;DHT22;7654;45.308;-75.096;2022-11-20T00:48:06;-1.90;99.90
15107;DHT22;7654;45.308;-75.096;2022-11-20T00:50:37;-1.90;99.90
15107;DHT22;7654;45.308;-75.096;2022-11-20T00:53:07;-1.90;99.90
15107;DHT22;7654;45.308;-75.096;2022-11-20T00:55:37;-1.90;99.90
15107;DHT22;7654;45.308;-75.096;2022-11-20T00:58:07;-2.00;99.90
15107;DHT22;7654;45.308;-75.096;2022-11-20T01:00:42;-2.00;99.90
15107;DHT22;7654;45.308;-75.096;2022-11-20T01:03:13;-2.00;99.90
15107;DHT22;7654;45.308;-75.096;2022-11-20T01:05:43;-2.00;99.90
15107;DHT22;7654;45.308;-75.096;2022-11-20T01:08:13;-2.00;99.90
15107;DHT22;7654;45.308;-75.096;2022-11-20T01:10:43;-2.00;99.90
15107;DHT22;7654;45.308;-75.096;2022-11-20T01:13:14;-2.10;99.90
15107;DHT22;7654;45.308;-75.096;2022-11-20T01:16:05;-2.10;99.90
15107;DHT22;7654;45.308;-75.096;2022-11-20T01:18:37;-2.10;99.90
15107;DHT22;7654;45.308;-75.096;2022-11-20T01:21:10;-2.10;99.90
15107;DHT22;7654;45.308;-75.096;2022-11-20T01:23:43;-2.10;99.90
15107;DHT22;7654;45.308;-75.096;2022-11-20T01:26:16;-2.20;99.90
15107;DHT22;7654;45.308;-75.096;2022-11-20T01:28:47;-2.20;99.90
15107;DHT22;7654;45.308;-75.096;2022-11-20T01:31:22;-2.20;99.90
15107;DHT22;7654;45.308;-75.096;2022-11-20T01:33:54;-2.30;99.90
15107;DHT22;7654;45.308;-75.096;2022-11-20T01:36:27;-2.30;99.90
15107;DHT22;7654;45.308;-75.096;2022-11-20T01:39:00;-2.30;99.90
15107;DHT22;7654;45.308;-75.096;2022-11-20T01:41:33;-2.30;99.90
15107;DHT22;7654;45.308;-75.096;2022-11-20T01:44:45;-2.30;99.90
15107;DHT22;7654;45.308;-75.096;2022-11-20T01:47:22;-2.30;99.90
15107;DHT22;7654;45.308;-75.096;2022-11-20T01:49:58;-2.30;99.90
15107;DHT22;7654;45.308;-75.096;2022-11-20T01:52:34;-2.30;99.90
15107;DHT22;7654;45.308;-75.096;2022-11-20T01:55:08;-2.40;99.90
15107;DHT22;7654;45.308;-75.096;2022-11-20T01:57:40;-2.40;99.90
15107;DHT22;7654;45.308;-75.096;2022-11-20T02:00:14;-2.40;99.90
15107;DHT22;7654;45.308;-75.096;2022-11-20T02:02:53;-2.40;99.90
15107;DHT22;7654;45.308;-75.096;2022-11-20T02:05:31;-2.50;99.90
15107;DHT22;7654;45.308;-75.096;2022-11-20T02:08:04;-2.50;99.90
15107;DHT22;7654;45.308;-75.096;2022-11-20T02:10:35;-2.50;99.90
15107;DHT22;7654;45.308;-75.096;2022-11-20T02:13:07;-2.50;99.90
15107;DHT22;7654;45.308;-75.096;2022-11-20T02:15:54;-2.40;99.90
15107;DHT22;7654;45.308;-75.096;2022-11-20T02:18:27;-2.40;99.90
15107;DHT22;7654;45.308;-75.096;2022-11-20T02:21:02;-2.40;99.90
15107;DHT22;7654;45.308;-75.096;2022-11-20T02:23:39;-2.50;99.90
15107;DHT22;7654;45.308;-75.096;2022-11-20T02:26:12;-2.50;99.90
15107;DHT22;7654;45.308;-75.096;2022-11-20T02:28:44;-2.50;99.90
15107;DHT22;7654;45.308;-75.096;2022-11-20T02:31:14;-2.50;99.90
15107;DHT22;7654;45.308;-75.096;2022-11-20T02:33:45;-2.50;99.90
15107;DHT22;7654;45.308;-75.096;2022-11-20T02:36:16;-2.50;99.90
15107;DHT22;7654;45.308;-75.096;2022-11-20T02:38:46;-2.50;99.90
15107;DHT22;7654;45.308;-75.096;2022-11-20T02:41:20;-2.50;99.90
15107;DHT22;7654;45.308;-75.096;2022-11-20T02:43:54;-2.50;99.90
15107;DHT22;7654;45.308;-75.096;2022-11-20T02:46:24;-2.50;99.90
15107;DHT22;7654;45.308;-75.096;2022-11-20T02:48:54;-2.50;99.90
15107;DHT22;7654;45.308;-75.096;2022-11-20T02:51:25;-2.50;99.90
15107;DHT22;7654;45.308;-75.096;2022-11-20T02:53:56;-2.50;99.90
15107;DHT22;7654;45.308;-75.096;2022-11-20T02:56:29;-2.50;99.90
15107;DHT22;7654;45.308;-75.096;2022-11-20T02:58:59;-2.50;99.90
15107;DHT22;7654;45.308;-75.096;2022-11-20T03:01:30;-2.50;99.90
15107;DHT22;7654;45.308;-75.096;2022-11-20T03:04:01;-2.40;99.90
15107;DHT22;7654;45.308;-75.096;2022-11-20T03:06:32;-2.40;99.90
15107;DHT22;7654;45.308;-75.096;2022-11-20T03:09:02;-2.40;99.90
15107;DHT22;7654;45.308;-75.096;2022-11-20T03:11:34;-2.50;99.90
15107;DHT22;7654;45.308;-75.096;2022-11-20T03:14:05;-2.40;99.90
15107;DHT22;7654;45.308;-75.096;2022-11-20T03:16:35;-2.50;99.90
15107;DHT22;7654;45.308;-75.096;2022-11-20T03:19:07;-2.50;99.90
15107;DHT22;7654;45.308;-75.096;2022-11-20T03:21:37;-2.50;99.90
15107;DHT22;7654;45.308;-75.096;2022-11-20T03:24:09;-2.50;99.90
15107;DHT22;7654;45.308;-75.096;2022-11-20T03:26:41;-2.40;99.90
15107;DHT22;7654;45.308;-75.096;2022-11-20T03:29:11;-2.40;99.90
15107;DHT22;7654;45.308;-75.096;2022-11-20T03:31:41;-2.40;99.90
15107;DHT22;7654;45.308;-75.096;2022-11-20T03:34:12;-2.40;99.90
15107;DHT22;7654;45.308;-75.096;2022-11-20T03:36:44;-2.40;99.90
15107;DHT22;7654;45.308;-75.096;2022-11-20T03:39:14;-2.40;99.90
15107;DHT22;7654;45.308;-75.096;2022-11-20T03:41:46;-2.40;99.90
15107;DHT22;7654;45.308;-75.096;2022-11-20T03:44:16;-2.40;99.90
15107;DHT22;7654;45.308;-75.096;2022-11-20T03:46:47;-2.40;99.90
15107;DHT22;7654;45.308;-75.096;2022-11-20T03:49:17;-2.40;99.90
15107;DHT22;7654;45.308;-75.096;2022-11-20T03:51:48;-2.40;99.90
15107;DHT22;7654;45.308;-75.096;2022-11-20T03:54:19;-2.40;99.90
15107;DHT22;7654;45.308;-75.096;2022-11-20T03:56:50;-2.40;99.90
15107;DHT22;7654;45.308;-75.096;2022-11-20T03:59:21;-2.40;99.90
15107;DHT22;7654;45.308;-75.096;2022-11-20T04:01:51;-2.40;99.90
15107;DHT22;7654;45.308;-75.096;2022-11-20T04:04:21;-2.40;99.90
15107;DHT22;7654;45.308;-75.096;2022-11-20T04:06:51;-2.40;99.90
15107;DHT22;7654;45.308;-75.096;2022-11-20T04:09:21;-2.40;99.90
15107;DHT22;7654;45.308;-75.096;2022-11-20T04:11:53;-2.40;99.90
15107;DHT22;7654;45.308;-75.096;2022-11-20T04:14:23;-2.50;99.90
15107;DHT22;7654;45.308;-75.096;2022-11-20T04:16:54;-2.50;99.90
15107;DHT22;7654;45.308;-75.096;2022-11-20T04:19:24;-2.50;99.90
15107;DHT22;7654;45.308;-75.096;2022-11-20T04:21:54;-2.50;99.90
15107;DHT22;7654;45.308;-75.096;2022-11-20T04:24:24;-2.50;99.90
15107;DHT22;7654;45.308;-75.096;2022-11-20T04:26:56;-2.60;99.90
15107;DHT22;7654;45.308;-75.096;2022-11-20T04:29:26;-2.60;99.90
15107;DHT22;7654;45.308;-75.096;2022-11-20T04:31:56;-2.60;99.90
15107;DHT22;7654;45.308;-75.096;2022-11-20T04:34:27;-2.60;99.90
15107;DHT22;7654;45.308;-75.096;2022-11-20T04:36:57;-2.70;99.90
15107;DHT22;7654;45.308;-75.096;2022-11-20T04:39:27;-2.70;99.90
15107;DHT22;7654;45.308;-75.096;2022-11-20T04:41:59;-2.70;99.90
15107;DHT22;7654;45.308;-75.096;2022-11-20T04:44:46;-2.70;99.90
15107;DHT22;7654;45.308;-75.096;2022-11-20T04:47:16;-2.80;99.90
15107;DHT22;7654;45.308;-75.096;2022-11-20T04:49:47;-2.80;99.90
15107;DHT22;7654;45.308;-75.096;2022-11-20T04:52:17;-2.70;99.90
15107;DHT22;7654;45.308;-75.096;2022-11-20T04:54:48;-2.70;99.90
15107;DHT22;7654;45.308;-75.096;2022-11-20T04:57:24;-2.70;99.90
15107;DHT22;7654;45.308;-75.096;2022-11-20T04:59:54;-2.70;99.90
15107;DHT22;7654;45.308;-75.096;2022-11-20T05:02:25;-2.70;99.90
15107;DHT22;7654;45.308;-75.096;2022-11-20T05:04:55;-2.60;99.90
15107;DHT22;7654;45.308;-75.096;2022-11-20T05:07:25;-2.60;99.90
15107;DHT22;7654;45.308;-75.096;2022-11-20T05:09:55;-2.60;99.90
15107;DHT22;7654;45.308;-75.096;2022-11-20T05:12:28;-2.60;99.90
15107;DHT22;7654;45.308;-75.096;2022-11-20T05:14:58;-2.60;99.90
15107;DHT22;7654;45.308;-75.096;2022-11-20T05:17:28;-2.60;99.90
15107;DHT22;7654;45.308;-75.096;2022-11-20T05:19:59;-2.60;99.90
15107;DHT22;7654;45.308;-75.096;2022-11-20T05:22:29;-2.60;99.90
15107;DHT22;7654;45.308;-75.096;2022-11-20T05:24:59;-2.60;99.90
15107;DHT22;7654;45.308;-75.096;2022-11-20T05:27:31;-2.60;99.90
15107;DHT22;7654;45.308;-75.096;2022-11-20T05:30:02;-2.60;99.90
15107;DHT22;7654;45.308;-75.096;2022-11-20T05:32:32;-2.60;99.90
15107;DHT22;7654;45.308;-75.096;2022-11-20T05:35:02;-2.60;99.90
15107;DHT22;7654;45.308;-75.096;2022-11-20T05:37:32;-2.60;99.90
15107;DHT22;7654;45.308;-75.096;2022-11-20T05:40:03;-2.60;99.90
15107;DHT22;7654;45.308;-75.096;2022-11-20T05:42:35;-2.60;99.90
15107;DHT22;7654;45.308;-75.096;2022-11-20T05:45:06;-2.70;99.90
15107;DHT22;7654;45.308;-75.096;2022-11-20T05:47:36;-2.60;99.90
15107;DHT22;7654;45.308;-75.096;2022-11-20T05:50:08;-2.60;99.90
15107;DHT22;7654;45.308;-75.096;2022-11-20T05:52:38;-2.60;99.90
15107;DHT22;7654;45.308;-75.096;2022-11-20T05:55:09;-2.70;99.90
15107;DHT22;7654;45.308;-75.096;2022-11-20T05:57:41;-2.70;99.90
15107;DHT22;7654;45.308;-75.096;2022-11-20T06:00:12;-2.70;99.90
15107;DHT22;7654;45.308;-75.096;2022-11-20T06:02:42;-2.70;99.90
15107;DHT22;7654;45.308;-75.096;2022-11-20T06:05:13;-2.70;99.90
15107;DHT22;7654;45.308;-75.096;2022-11-20T06:07:43;-2.70;99.90
15107;DHT22;7654;45.308;-75.096;2022-11-20T06:10:13;-2.70;99.90
15107;DHT22;7654;45.308;-75.096;2022-11-20T06:12:45;-2.70;99.90
15107;DHT22;7654;45.308;-75.096;2022-11-20T06:15:15;-2.70;99.90
15107;DHT22;7654;45.308;-75.096;2022-11-20T06:17:46;-2.70;99.90
15107;DHT22;7654;45.308;-75.096;2022-11-20T06:20:16;-2.70;99.90
15107;DHT22;7654;45.308;-75.096;2022-11-20T06:22:46;-2.70;99.90
15107;DHT22;7654;45.308;-75.096;2022-11-20T06:25:17;-2.70;99.90
15107;DHT22;7654;45.308;-75.096;2022-11-20T06:27:49;-2.70;99.90
15107;DHT22;7654;45.308;-75.096;2022-11-20T06:30:19;-2.70;99.90
15107;DHT22;7654;45.308;-75.096;2022-11-20T06:32:49;-2.70;99.90
15107;DHT22;7654;45.308;-75.096;2022-11-20T06:35:19;-2.70;99.90
15107;DHT22;7654;45.308;-75.096;2022-11-20T06:37:50;-2.80;99.90
15107;DHT22;7654;45.308;-75.096;2022-11-20T06:40:20;-2.80;99.90
15107;DHT22;7654;45.308;-75.096;2022-11-20T06:42:53;-2.80;99.90
15107;DHT22;7654;45.308;-75.096;2022-11-20T06:45:24;-2.90;99.90
15107;DHT22;7654;45.308;-75.096;2022-11-20T06:47:54;-2.90;99.90
15107;DHT22;7654;45.308;-75.096;2022-11-20T06:50:27;-2.90;99.90
15107;DHT22;7654;45.308;-75.096;2022-11-20T06:53:01;-2.90;99.90
15107;DHT22;7654;45.308;-75.096;2022-11-20T06:55:32;-2.90;99.90
15107;DHT22;7654;45.308;-75.096;2022-11-20T06:58:04;-2.90;99.90
15107;DHT22;7654;45.308;-75.096;2022-11-20T07:00:34;-2.90;99.90
15107;DHT22;7654;45.308;-75.096;2022-11-20T07:03:05;-2.90;99.90
15107;DHT22;7654;45.308;-75.096;2022-11-20T07:05:35;-2.90;99.90
15107;DHT22;7654;45.308;-75.096;2022-11-20T07:08:06;-2.90;99.90
15107;DHT22;7654;45.308;-75.096;2022-11-20T07:10:37;-2.90;99.90
15107;DHT22;7654;45.308;-75.096;2022-11-20T07:13:09;-2.90;99.90
15107;DHT22;7654;45.308;-75.096;2022-11-20T07:15:39;-2.90;99.90
15107;DHT22;7654;45.308;-75.096;2022-11-20T07:18:09;-2.90;99.90
15107;DHT22;7654;45.308;-75.096;2022-11-20T07:20:40;-2.90;99.90
15107;DHT22;7654;45.308;-75.096;2022-11-20T07:23:10;-3.00;99.90
15107;DHT22;7654;45.308;-75.096;2022-11-20T07:25:42;-3.00;99.90
15107;DHT22;7654;45.308;-75.096;2022-11-20T07:28:14;-3.10;99.90
15107;DHT22;7654;45.308;-75.096;2022-11-20T07:30:50;-3.10;99.90
15107;DHT22;7654;45.308;-75.096;2022-11-20T07:33:21;-3.20;99.90
15107;DHT22;7654;45.308;-75.096;2022-11-20T07:35:51;-3.20;99.90
15107;DHT22;7654;45.308;-75.096;2022-11-20T07:38:21;-3.20;99.90
15107;DHT22;7654;45.308;-75.096;2022-11-20T07:40:54;-3.10;99.90
15107;DHT22;7654;45.308;-75.096;2022-11-20T07:43:29;-3.00;99.90
15107;DHT22;7654;45.308;-75.096;2022-11-20T07:46:06;-3.00;99.90
15107;DHT22;7654;45.308;-75.096;2022-11-20T07:48:36;-3.00;99.90
15107;DHT22;7654;45.308;-75.096;2022-11-20T07:51:07;-3.00;99.90
15107;DHT22;7654;45.308;-75.096;2022-11-20T07:53:37;-2.90;99.90
15107;DHT22;7654;45.308;-75.096;2022-11-20T07:56:08;-2.90;99.90
15107;DHT22;7654;45.308;-75.096;2022-11-20T07:58:39;-2.80;99.90
15107;DHT22;7654;45.308;-75.096;2022-11-20T08:01:10;-2.80;99.90
15107;DHT22;7654;45.308;-75.096;2022-11-20T08:03:41;-2.80;99.90
15107;DHT22;7654;45.308;-75.096;2022-11-20T08:06:11;-2.70;99.90
15107;DHT22;7654;45.308;-75.096;2022-11-20T08:08:42;-2.70;99.90
15107;DHT22;7654;45.308;-75.096;2022-11-20T08:11:13;-2.60;99.90
15107;DHT22;7654;45.308;-75.096;2022-11-20T08:14:01;-2.60;99.90
15107;DHT22;7654;45.308;-75.096;2022-11-20T08:16:45;-2.60;99.90
15107;DHT22;7654;45.308;-75.096;2022-11-20T08:19:17;-2.60;99.90
15107;DHT22;7654;45.308;-75.096;2022-11-20T08:21:47;-2.70;99.90
15107;DHT22;7654;45.308;-75.096;2022-11-20T08:24:18;-2.70;99.90
15107;DHT22;7654;45.308;-75.096;2022-11-20T08:26:48;-2.80;99.90
15107;DHT22;7654;45.308;-75.096;2022-11-20T08:29:20;-2.90;99.90
15107;DHT22;7654;45.308;-75.096;2022-11-20T08:31:53;-2.90;99.90
15107;DHT22;7654;45.308;-75.096;2022-11-20T08:34:24;-3.00;99.90
15107;DHT22;7654;45.308;-75.096;2022-11-20T08:36:54;-3.00;99.90
15107;DHT22;7654;45.308;-75.096;2022-11-20T08:39:24;-3.10;99.90
15107;DHT22;7654;45.308;-75.096;2022-11-20T08:41:54;-3.10;99.90
15107;DHT22;7654;45.308;-75.096;2022-11-20T08:44:26;-3.10;99.90
15107;DHT22;7654;45.308;-75.096;2022-11-20T08:46:57;-3.10;99.90
15107;DHT22;7654;45.308;-75.096;2022-11-20T08:49:27;-3.10;99.90
15107;DHT22;7654;45.308;-75.096;2022-11-20T08:51:58;-3.10;99.90
15107;DHT22;7654;45.308;-75.096;2022-11-20T08:54:28;-3.10;99.90
15107;DHT22;7654;45.308;-75.096;2022-11-20T08:56:58;-3.10;99.90
15107;DHT22;7654;45.308;-75.096;2022-11-20T08:59:30;-3.10;99.90
15107;DHT22;7654;45.308;-75.096;2022-11-20T09:02:21;-3.10;99.90
15107;DHT22;7654;45.308;-75.096;2022-11-20T09:04:51;-3.20;99.90
15107;DHT22;7654;45.308;-75.096;2022-11-20T09:07:21;-3.30;99.90
15107;DHT22;7654;45.308;-75.096;2022-11-20T09:09:51;-3.30;99.90
15107;DHT22;7654;45.308;-75.096;2022-11-20T09:12:42;-3.40;99.90
15107;DHT22;7654;45.308;-75.096;2022-11-20T09:15:14;-3.40;99.90
15107;DHT22;7654;45.308;-75.096;2022-11-20T09:17:51;-3.50;99.90
15107;DHT22;7654;45.308;-75.096;2022-11-20T09:20:21;-3.70;99.90
15107;DHT22;7654;45.308;-75.096;2022-11-20T09:22:52;-3.80;99.90
15107;DHT22;7654;45.308;-75.096;2022-11-20T09:25:23;-3.90;99.90
15107;DHT22;7654;45.308;-75.096;2022-11-20T09:27:56;-4.00;99.90
15107;DHT22;7654;45.308;-75.096;2022-11-20T09:30:28;-4.00;99.90
15107;DHT22;7654;45.308;-75.096;2022-11-20T09:32:59;-4.00;99.90
15107;DHT22;7654;45.308;-75.096;2022-11-20T09:35:29;-4.20;99.90
15107;DHT22;7654;45.308;-75.096;2022-11-20T09:38:04;-4.30;99.90
15107;DHT22;7654;45.308;-75.096;2022-11-20T09:40:36;-4.40;99.90
15107;DHT22;7654;45.308;-75.096;2022-11-20T09:43:14;-4.40;99.90
15107;DHT22;7654;45.308;-75.096;2022-11-20T09:46:02;-4.40;99.90
15107;DHT22;7654;45.308;-75.096;2022-11-20T09:48:50;-4.40;99.90
15107;DHT22;7654;45.308;-75.096;2022-11-20T09:51:34;-4.40;99.90
15107;DHT22;7654;45.308;-75.096;2022-11-20T09:54:17;-4.40;99.90
15107;DHT22;7654;45.308;-75.096;2022-11-20T09:56:51;-4.40;99.90
15107;DHT22;7654;45.308;-75.096;2022-11-20T09:59:32;-4.40;99.90
15107;DHT22;7654;45.308;-75.096;2022-11-20T10:02:16;-4.50;99.90
15107;DHT22;7654;45.308;-75.096;2022-11-20T10:04:51;-4.50;99.90
15107;DHT22;7654;45.308;-75.096;2022-11-20T10:07:24;-4.50;99.90
15107;DHT22;7654;45.308;-75.096;2022-11-20T10:09:59;-4.60;99.90
15107;DHT22;7654;45.308;-75.096;2022-11-20T10:12:36;-4.60;99.90
15107;DHT22;7654;45.308;-75.096;2022-11-20T10:15:17;-4.70;99.90
15107;DHT22;7654;45.308;-75.096;2022-11-20T10:18:09;-4.70;99.90
15107;DHT22;7654;45.308;-75.096;2022-11-20T10:20:46;-4.80;99.90
15107;DHT22;7654;45.308;-75.096;2022-11-20T10:26:25;-5.00;99.90
15107;DHT22;7654;45.308;-75.096;2022-11-20T10:29:12;-5.00;99.90
15107;DHT22;7654;45.308;-75.096;2022-11-20T10:31:45;-5.10;99.90
15107;DHT22;7654;45.308;-75.096;2022-11-20T10:34:22;-5.10;99.90
15107;DHT22;7654;45.308;-75.096;2022-11-20T10:36:55;-5.30;99.90
15107;DHT22;7654;45.308;-75.096;2022-11-20T10:39:33;-5.30;99.90
15107;DHT22;7654;45.308;-75.096;2022-11-20T10:42:09;-5.30;99.90
15107;DHT22;7654;45.308;-75.096;2022-11-20T10:44:43;-5.40;99.90
15107;DHT22;7654;45.308;-75.096;2022-11-20T10:47:33;-5.20;99.90
15107;DHT22;7654;45.308;-75.096;2022-11-20T10:50:11;-5.10;99.90
15107;DHT22;7654;45.308;-75.096;2022-11-20T10:52:57;-5.10;99.90
15107;DHT22;7654;45.308;-75.096;2022-11-20T10:55:36;-4.90;99.90
15107;DHT22;7654;45.308;-75.096;2022-11-20T10:58:13;-4.80;99.90
15107;DHT22;7654;45.308;-75.096;2022-11-20T11:00:44;-4.70;99.90
15107;DHT22;7654;45.308;-75.096;2022-11-20T11:03:22;-4.70;99.90
15107;DHT22;7654;45.308;-75.096;2022-11-20T11:06:00;-4.60;99.90
15107;DHT22;7654;45.308;-75.096;2022-11-20T11:08:35;-4.50;99.90
15107;DHT22;7654;45.308;-75.096;2022-11-20T11:11:19;-4.50;99.90
15107;DHT22;7654;45.308;-75.096;2022-11-20T11:13:50;-4.40;99.90
15107;DHT22;7654;45.308;-75.096;2022-11-20T11:16:22;-4.40;99.90
15107;DHT22;7654;45.308;-75.096;2022-11-20T11:19:04;-4.40;99.90
15107;DHT22;7654;45.308;-75.096;2022-11-20T11:21:36;-4.40;99.90
15107;DHT22;7654;45.308;-75.096;2022-11-20T11:24:20;-4.30;99.90
15107;DHT22;7654;45.308;-75.096;2022-11-20T11:27:13;-4.30;99.90
15107;DHT22;7654;45.308;-75.096;2022-11-20T11:29:46;-4.40;99.90
15107;DHT22;7654;45.308;-75.096;2022-11-20T11:32:18;-4.40;99.90
15107;DHT22;7654;45.308;-75.096;2022-11-20T11:35:00;-4.50;99.90
15107;DHT22;7654;45.308;-75.096;2022-11-20T11:37:34;-4.60;99.90
15107;DHT22;7654;45.308;-75.096;2022-11-20T11:40:08;-4.60;99.90
15107;DHT22;7654;45.308;-75.096;2022-11-20T11:42:58;-4.60;99.90
15107;DHT22;7654;45.308;-75.096;2022-11-20T11:45:31;-4.60;99.90
15107;DHT22;7654;45.308;-75.096;2022-11-20T11:48:01;-4.60;99.90
15107;DHT22;7654;45.308;-75.096;2022-11-20T11:50:33;-4.60;99.90
15107;DHT22;7654;45.308;-75.096;2022-11-20T11:53:12;-4.60;99.90
15107;DHT22;7654;45.308;-75.096;2022-11-20T11:55:45;-4.50;99.90
15107;DHT22;7654;45.308;-75.096;2022-11-20T11:58:34;-4.40;99.90
15107;DHT22;7654;45.308;-75.096;2022-11-20T12:01:18;-4.30;99.90
15107;DHT22;7654;45.308;-75.096;2022-11-20T12:03:55;-4.20;99.90
15107;DHT22;7654;45.308;-75.096;2022-11-20T12:06:31;-4.20;99.90
15107;DHT22;7654;45.308;-75.096;2022-11-20T12:09:05;-4.20;99.90
15107;DHT22;7654;45.308;-75.096;2022-11-20T12:11:42;-4.20;99.90
15107;DHT22;7654;45.308;-75.096;2022-11-20T12:14:17;-4.30;99.90
15107;DHT22;7654;45.308;-75.096;2022-11-20T12:16:52;-4.30;99.90
15107;DHT22;7654;45.308;-75.096;2022-11-20T12:19:24;-4.30;99.90
15107;DHT22;7654;45.308;-75.096;2022-11-20T12:22:05;-4.30;99.90
15107;DHT22;7654;45.308;-75.096;2022-11-20T12:24:49;-4.40;99.90
15107;DHT22;7654;45.308;-75.096;2022-11-20T12:27:36;-4.40;99.90
15107;DHT22;7654;45.308;-75.096;2022-11-20T12:30:11;-4.40;99.90
15107;DHT22;7654;45.308;-75.096;2022-11-20T12:32:57;-4.40;99.90
15107;DHT22;7654;45.308;-75.096;2022-11-20T12:38:42;-4.30;99.90
15107;DHT22;7654;45.308;-75.096;2022-11-20T12:41:25;-4.30;99.90
15107;DHT22;7654;45.308;-75.096;2022-11-20T12:44:27;-4.30;99.90
15107;DHT22;7654;45.308;-75.096;2022-11-20T12:47:24;-4.20;99.90
15107;DHT22;7654;45.308;-75.096;2022-11-20T12:50:04;-4.20;99.90
15107;DHT22;7654;45.308;-75.096;2022-11-20T12:52:44;-4.10;99.90
15107;DHT22;7654;45.308;-75.096;2022-11-20T12:55:28;-4.10;99.90
15107;DHT22;7654;45.308;-75.096;2022-11-20T12:58:12;-4.00;99.90
15107;DHT22;7654;45.308;-75.096;2022-11-20T13:00:55;-4.00;99.90
15107;DHT22;7654;45.308;-75.096;2022-11-20T13:03:37;-4.00;99.90
15107;DHT22;7654;45.308;-75.096;2022-11-20T13:06:15;-4.00;99.90
15107;DHT22;7654;45.308;-75.096;2022-11-20T13:08:50;-4.00;99.90
15107;DHT22;7654;45.308;-75.096;2022-11-20T13:11:26;-3.90;99.90
15107;DHT22;7654;45.308;-75.096;2022-11-20T13:14:18;-3.80;99.90
15107;DHT22;7654;45.308;-75.096;2022-11-20T13:16:57;-3.80;99.90
15107;DHT22;7654;45.308;-75.096;2022-11-20T13:19:33;-3.80;99.90
15107;DHT22;7654;45.308;-75.096;2022-11-20T13:22:04;-3.70;99.90
15107;DHT22;7654;45.308;-75.096;2022-11-20T13:24:34;-3.60;99.90
15107;DHT22;7654;45.308;-75.096;2022-11-20T13:27:17;-3.60;99.90
15107;DHT22;7654;45.308;-75.096;2022-11-20T13:30:01;-3.50;99.90
15107;DHT22;7654;45.308;-75.096;2022-11-20T13:32:32;-3.50;99.90
15107;DHT22;7654;45.308;-75.096;2022-11-20T13:35:04;-3.40;99.90
15107;DHT22;7654;45.308;-75.096;2022-11-20T13:37:36;-3.40;99.90
15107;DHT22;7654;45.308;-75.096;2022-11-20T13:40:19;-3.30;99.90
15107;DHT22;7654;45.308;-75.096;2022-11-20T13:42:56;-3.20;99.90
15107;DHT22;7654;45.308;-75.096;2022-11-20T13:45:33;-3.10;99.90
15107;DHT22;7654;45.308;-75.096;2022-11-20T13:48:16;-3.00;99.90
15107;DHT22;7654;45.308;-75.096;2022-11-20T13:50:56;-3.00;99.90
15107;DHT22;7654;45.308;-75.096;2022-11-20T13:56:31;-3.00;99.90
15107;DHT22;7654;45.308;-75.096;2022-11-20T13:59:11;-3.00;99.90
15107;DHT22;7654;45.308;-75.096;2022-11-20T14:01:46;-3.00;99.90
15107;DHT22;7654;45.308;-75.096;2022-11-20T14:04:20;-3.00;99.90
15107;DHT22;7654;45.308;-75.096;2022-11-20T14:06:52;-2.90;99.90
15107;DHT22;7654;45.308;-75.096;2022-11-20T14:09:27;-2.80;99.90
15107;DHT22;7654;45.308;-75.096;2022-11-20T14:11:58;-2.70;99.90
15107;DHT22;7654;45.308;-75.096;2022-11-20T14:14:30;-2.70;99.90
15107;DHT22;7654;45.308;-75.096;2022-11-20T14:17:15;-2.60;99.90
15107;DHT22;7654;45.308;-75.096;2022-11-20T14:19:48;-2.50;99.90
15107;DHT22;7654;45.308;-75.096;2022-11-20T14:22:21;-2.40;99.90
15107;DHT22;7654;45.308;-75.096;2022-11-20T14:25:04;-2.40;99.90
15107;DHT22;7654;45.308;-75.096;2022-11-20T14:27:37;-2.30;99.90
15107;DHT22;7654;45.308;-75.096;2022-11-20T14:30:14;-2.20;99.90
15107;DHT22;7654;45.308;-75.096;2022-11-20T14:32:48;-2.30;99.90
15107;DHT22;7654;45.308;-75.096;2022-11-20T14:35:23;-2.40;99.90
15107;DHT22;7654;45.308;-75.096;2022-11-20T14:37:54;-2.30;99.90
15107;DHT22;7654;45.308;-75.096;2022-11-20T14:40:28;-2.30;99.90
15107;DHT22;7654;45.308;-75.096;2022-11-20T14:42:59;-2.20;99.90
15107;DHT22;7654;45.308;-75.096;2022-11-20T14:45:29;-2.20;99.90
15107;DHT22;7654;45.308;-75.096;2022-11-20T14:48:02;-2.20;99.90
15107;DHT22;7654;45.308;-75.096;2022-11-20T14:50:33;-2.20;99.90
15107;DHT22;7654;45.308;-75.096;2022-11-20T14:53:03;-2.20;99.90
15107;DHT22;7654;45.308;-75.096;2022-11-20T14:55:34;-2.30;99.90
15107;DHT22;7654;45.308;-75.096;2022-11-20T14:58:22;-2.30;99.90
15107;DHT22;7654;45.308;-75.096;2022-11-20T15:00:56;-2.00;99.90
15107;DHT22;7654;45.308;-75.096;2022-11-20T15:03:38;-1.70;99.90
15107;DHT22;7654;45.308;-75.096;2022-11-20T15:06:24;-1.70;99.90
15107;DHT22;7654;45.308;-75.096;2022-11-20T15:09:20;-1.70;99.90
15107;DHT22;7654;45.308;-75.096;2022-11-20T15:11:55;-1.60;99.90
15107;DHT22;7654;45.308;-75.096;2022-11-20T15:14:27;-1.60;99.90
15107;DHT22;7654;45.308;-75.096;2022-11-20T15:16:59;-1.60;99.90
15107;DHT22;7654;45.308;-75.096;2022-11-20T15:19:31;-1.60;99.90
15107;DHT22;7654;45.308;-75.096;2022-11-20T15:22:02;-1.90;99.90
15107;DHT22;7654;45.308;-75.096;2022-11-20T15:24:34;-1.70;99.90
15107;DHT22;7654;45.308;-75.096;2022-11-20T15:27:04;-1.80;99.90
15107;DHT22;7654;45.308;-75.096;2022-11-20T15:29:41;-1.60;99.90
15107;DHT22;7654;45.308;-75.096;2022-11-20T15:32:15;-1.20;99.90
15107;DHT22;7654;45.308;-75.096;2022-11-20T15:34:47;-1.10;99.90
15107;DHT22;7654;45.308;-75.096;2022-11-20T15:37:18;-1.30;99.90
15107;DHT22;7654;45.308;-75.096;2022-11-20T15:40:22;-1.40;99.90
15107;DHT22;7654;45.308;-75.096;2022-11-20T15:45:56;-1.60;99.90
15107;DHT22;7654;45.308;-75.096;2022-11-20T15:46:26;-1.70;99.90
15107;DHT22;7654;45.308;-75.096;2022-11-20T16:27:36;-0.80;99.90
15107;DHT22;7654;45.308;-75.096;2022-11-20T16:30:36;-0.80;99.90
15107;DHT22;7654;45.308;-75.096;2022-11-20T16:37:17;-0.80;90.70
15107;DHT22;7654;45.308;-75.096;2022-11-20T16:46:33;-0.60;83.30
15107;DHT22;7654;45.308;-75.096;2022-11-20T16:49:21;-0.60;75.40
15107;DHT22;7654;45.308;-75.096;2022-11-20T16:52:16;-0.60;79.20
15107;DHT22;7654;45.308;-75.096;2022-11-20T16:55:08;-0.90;80.80
15107;DHT22;7654;45.308;-75.096;2022-11-20T16:57:44;-0.90;75.80